createdAt,value
2022-09-09T00:01:31.890Z,100165.28
2022-09-09T00:04:04.626Z,100144.34
2022-09-09T00:06:37.153Z,100182.38
2022-09-09T00:09:13.043Z,100168.56
2022-09-09T00:12:23.990Z,100171.28
2022-09-09T00:15:00.890Z,100154.56
2022-09-09T00:17:40.734Z,100169.91
2022-09-09T00:20:15.419Z,100170.84
2022-09-09T00:22:48.768Z,100158.91
2022-09-09T00:25:30.106Z,100140.09
2022-09-09T00:27:57.052Z,100136.50
2022-09-09T00:30:28.091Z,100152.69
2022-09-09T00:33:01.047Z,100157.97
2022-09-09T00:35:33.411Z,100158.75
2022-09-09T00:38:11.781Z,100159.84
2022-09-09T00:40:46.310Z,100142.84
2022-09-09T00:43:31.938Z,100153.38
2022-09-09T00:46:25.134Z,100146.03
2022-09-09T00:49:10.340Z,100141.78
2022-09-09T00:51:51.209Z,100160.13
2022-09-09T00:54:36.918Z,100157.66
2022-09-09T00:57:13.799Z,100150.50
2022-09-09T00:59:51.594Z,100161.16
2022-09-09T01:02:32.466Z,100147.09
2022-09-09T01:05:28.116Z,100141.13
2022-09-09T01:07:58.384Z,100136.19
2022-09-09T01:10:54.136Z,100143.19
2022-09-09T01:13:36.351Z,100143.19
2022-09-09T01:16:06.872Z,100152.06
2022-09-09T01:18:37.329Z,100144.28
2022-09-09T01:21:23.634Z,100121.31
2022-09-09T01:24:08.750Z,100143.34
2022-09-09T01:26:38.518Z,100133.13
2022-09-09T01:29:09.817Z,100147.78
2022-09-09T01:32:00.226Z,100144.38
2022-09-09T01:34:34.872Z,100136.84
2022-09-09T01:37:13.193Z,100134.47
2022-09-09T01:39:42.726Z,100136.94
2022-09-09T01:42:12.705Z,100141.19
2022-09-09T01:44:39.443Z,100131.72
2022-09-09T01:47:06.824Z,100137.13
2022-09-09T01:49:33.786Z,100151.00
2022-09-09T01:52:00.403Z,100140.53
2022-09-09T01:54:30.750Z,100140.13
2022-09-09T01:57:18.775Z,100140.44
2022-09-09T02:00:07.062Z,100145.06
2022-09-09T02:02:57.003Z,100133.16
2022-09-09T02:05:46.331Z,100141.19
2022-09-09T02:08:20.001Z,100140.59
2022-09-09T02:11:12.362Z,100128.31
2022-09-09T02:13:39.918Z,100140.34
2022-09-09T02:16:22.562Z,100118.78
2022-09-09T02:19:14.178Z,100081.91
2022-09-09T02:21:44.680Z,100128.44
2022-09-09T02:24:14.927Z,100089.22
2022-09-09T02:26:43.587Z,100136.81
2022-09-09T02:29:15.306Z,100134.22
2022-09-09T02:31:45.175Z,100086.81
2022-09-09T02:34:13.235Z,100090.88
2022-09-09T02:36:43.942Z,100116.81
2022-09-09T02:39:11.598Z,100117.47
2022-09-09T02:41:41.078Z,100077.06
2022-09-09T02:44:17.821Z,100121.38
2022-09-09T02:46:44.110Z,100119.50
2022-09-09T02:49:18.033Z,100119.09
2022-09-09T02:52:06.611Z,100118.69
2022-09-09T02:54:37.053Z,100098.19
2022-09-09T02:57:07.261Z,100121.88
2022-09-09T02:59:34.637Z,100103.38
2022-09-09T03:02:01.076Z,100097.50
2022-09-09T03:04:27.571Z,100102.00
2022-09-09T03:06:54.101Z,100082.03
2022-09-09T03:09:20.582Z,100105.91
2022-09-09T03:11:47.282Z,100111.50
2022-09-09T03:14:13.712Z,100092.41
2022-09-09T03:16:40.166Z,100063.63
2022-09-09T03:19:07.291Z,100076.09
2022-09-09T03:21:33.751Z,100081.91
2022-09-09T03:24:00.472Z,100094.97
2022-09-09T03:26:26.854Z,100051.03
2022-09-09T03:28:54.162Z,100086.69
2022-09-09T03:31:20.703Z,100057.72
2022-09-09T03:33:47.200Z,100056.31
2022-09-09T03:36:13.679Z,100112.91
2022-09-09T03:38:40.360Z,100074.94
2022-09-09T03:41:06.984Z,100073.97
2022-09-09T03:43:33.681Z,100117.69
2022-09-09T03:46:00.432Z,100085.63
2022-09-09T03:48:28.955Z,100102.50
2022-09-09T03:50:56.929Z,100090.88
2022-09-09T03:53:25.562Z,100061.84
2022-09-09T03:56:00.357Z,100101.06
2022-09-09T03:58:28.168Z,100085.16
2022-09-09T04:00:57.388Z,100124.56
2022-09-09T04:03:28.033Z,100066.66
2022-09-09T04:05:56.484Z,100114.91
2022-09-09T04:08:26.224Z,100064.34
2022-09-09T04:10:53.882Z,100066.06
2022-09-09T04:13:20.715Z,100073.03
2022-09-09T04:15:54.718Z,100095.31
2022-09-09T04:18:21.566Z,100114.34
2022-09-09T04:20:49.627Z,100067.22
2022-09-09T04:23:16.785Z,100099.75
2022-09-09T04:25:48.073Z,100091.81
2022-09-09T04:28:15.615Z,100086.91
2022-09-09T04:30:42.757Z,100120.63
2022-09-09T04:33:10.796Z,100097.31
2022-09-09T04:35:38.491Z,100108.75
2022-09-09T04:38:06.352Z,100100.91
2022-09-09T04:40:32.726Z,100096.16
2022-09-09T04:43:00.252Z,100104.69
2022-09-09T04:45:27.180Z,100066.47
2022-09-09T04:47:54.629Z,100117.63
2022-09-09T04:50:21.289Z,100095.69
2022-09-09T04:52:47.687Z,100112.16
2022-09-09T04:55:14.337Z,100121.81
2022-09-09T04:57:41.040Z,100097.22
2022-09-09T05:00:08.412Z,100091.84
2022-09-09T05:02:39.530Z,100111.81
2022-09-09T05:05:07.218Z,100112.28
2022-09-09T05:07:33.593Z,100109.69
2022-09-09T05:09:59.912Z,100052.19
2022-09-09T05:12:26.717Z,100101.69
2022-09-09T05:14:53.517Z,100097.50
2022-09-09T05:17:20.087Z,100104.16
2022-09-09T05:19:46.455Z,100122.03
2022-09-09T05:22:12.847Z,100115.38
2022-09-09T05:24:39.696Z,100110.47
2022-09-09T05:27:06.932Z,100109.63
2022-09-09T05:29:34.371Z,100112.28
2022-09-09T05:32:01.241Z,100103.63
2022-09-09T05:34:28.007Z,100095.81
2022-09-09T05:36:54.597Z,100094.63
2022-09-09T05:39:20.989Z,100098.56
2022-09-09T05:41:47.318Z,100107.91
2022-09-09T05:44:14.353Z,100123.25
2022-09-09T05:46:40.759Z,100110.59
2022-09-09T05:49:07.150Z,100118.16
2022-09-09T05:51:33.546Z,100095.41
2022-09-09T05:53:59.943Z,100094.63
2022-09-09T05:56:28.794Z,100099.03
2022-09-09T05:58:56.198Z,100084.06
2022-09-09T06:01:24.213Z,100126.72
2022-09-09T06:03:52.409Z,100127.66
2022-09-09T06:06:25.136Z,100089.91
2022-09-09T06:08:53.253Z,100102.50
2022-09-09T06:11:23.107Z,100125.16
2022-09-09T06:13:54.272Z,100041.97
2022-09-09T06:16:24.640Z,100128.72
2022-09-09T06:18:51.898Z,100128.16
2022-09-09T06:21:23.591Z,100116.97
2022-09-09T06:23:50.011Z,100113.75
2022-09-09T06:26:21.668Z,100112.41
2022-09-09T06:28:50.441Z,100134.69
2022-09-09T06:31:18.918Z,100128.16
2022-09-09T06:33:45.397Z,100121.19
2022-09-09T06:36:17.049Z,100120.81
2022-09-09T06:38:43.597Z,100111.31
2022-09-09T06:41:11.494Z,100130.44
2022-09-09T06:43:38.221Z,100127.56
2022-09-09T06:46:06.370Z,100123.81
2022-09-09T06:48:33.553Z,100101.63
2022-09-09T06:51:08.599Z,100122.69
2022-09-09T06:53:36.699Z,100127.16
2022-09-09T06:56:18.131Z,100106.94
2022-09-09T06:58:45.903Z,100130.97
2022-09-09T07:01:14.681Z,100084.63
2022-09-09T07:03:43.063Z,100136.25
2022-09-09T07:06:21.787Z,100126.50
2022-09-09T07:08:57.082Z,100120.31
2022-09-09T07:11:27.730Z,100136.22
2022-09-09T07:13:54.613Z,100136.69
2022-09-09T07:16:24.644Z,100129.94
2022-09-09T07:18:52.251Z,100105.50
2022-09-09T07:21:19.835Z,100080.31
2022-09-09T07:23:46.222Z,100098.31
2022-09-09T07:26:20.218Z,100113.09
2022-09-09T07:28:47.580Z,100077.50
2022-09-09T07:31:19.054Z,100131.09
2022-09-09T07:33:46.226Z,100117.84
2022-09-09T07:36:24.461Z,100112.16
2022-09-09T07:38:59.881Z,100120.28
2022-09-09T07:41:36.608Z,100130.78
2022-09-09T07:44:12.796Z,100130.53
2022-09-09T07:46:40.747Z,100132.31
2022-09-09T07:49:07.718Z,100126.94
2022-09-09T07:51:36.872Z,100107.81
2022-09-09T07:54:08.579Z,100126.75
2022-09-09T07:56:35.266Z,100132.81
2022-09-09T07:59:02.096Z,100125.19
2022-09-09T08:01:40.145Z,100129.09
2022-09-09T08:04:09.522Z,100128.22
2022-09-09T08:06:40.315Z,100121.22
2022-09-09T08:09:08.608Z,100134.25
2022-09-09T08:11:39.318Z,100139.19
2022-09-09T08:14:08.410Z,100122.09
2022-09-09T08:16:37.423Z,100133.81
2022-09-09T08:19:04.819Z,100101.47
2022-09-09T08:21:34.061Z,100153.34
2022-09-09T08:24:02.548Z,100130.25
2022-09-09T08:26:31.638Z,100148.81
2022-09-09T08:28:59.840Z,100143.88
2022-09-09T08:31:29.362Z,100149.56
2022-09-09T08:33:57.050Z,100155.94
2022-09-09T08:36:26.520Z,100171.47
2022-09-09T08:38:56.078Z,100165.66
2022-09-09T08:41:37.354Z,100178.38
2022-09-09T08:44:12.295Z,100172.28
2022-09-09T08:47:03.464Z,100173.44
2022-09-09T08:49:54.667Z,100164.56
2022-09-09T08:52:28.163Z,100181.25
2022-09-09T08:54:58.919Z,100157.91
2022-09-09T08:57:29.190Z,100184.50
2022-09-09T08:59:57.581Z,100177.91
2022-09-09T09:02:50.206Z,100185.81
2022-09-09T09:05:31.001Z,100179.00
2022-09-09T09:08:18.502Z,100171.97
2022-09-09T09:10:51.580Z,100183.84
2022-09-09T09:13:44.220Z,100174.31
2022-09-09T09:16:24.636Z,100155.38
2022-09-09T09:18:52.140Z,100175.00
2022-09-09T09:21:39.770Z,100168.81
2022-09-09T09:24:19.731Z,100169.97
2022-09-09T09:26:48.962Z,100164.03
2022-09-09T09:29:20.693Z,100174.25
2022-09-09T09:31:53.031Z,100161.06
2022-09-09T09:34:19.341Z,100169.97
2022-09-09T09:36:53.426Z,100172.00
2022-09-09T09:42:20.331Z,100173.72
2022-09-09T09:44:49.731Z,100177.66
2022-09-09T09:47:22.064Z,100174.88
2022-09-09T09:50:00.254Z,100186.06
2022-09-09T09:52:29.581Z,100154.44
2022-09-09T09:55:01.830Z,100160.63
2022-09-09T09:57:32.843Z,100170.44
2022-09-09T10:00:14.881Z,100166.16
2022-09-09T10:02:44.518Z,100164.56
2022-09-09T10:05:26.604Z,100166.09
2022-09-09T10:08:13.744Z,100157.75
2022-09-09T10:11:07.859Z,100178.81
2022-09-09T10:13:46.909Z,100152.97
2022-09-09T10:16:34.934Z,100178.94
2022-09-09T10:19:05.376Z,100188.41
2022-09-09T10:21:59.517Z,100183.38
2022-09-09T10:24:53.949Z,100181.91
2022-09-09T10:27:26.720Z,100187.22
2022-09-09T10:30:03.020Z,100181.81
2022-09-09T10:33:07.016Z,100169.13
2022-09-09T10:35:40.809Z,100177.25
2022-09-09T10:38:27.024Z,100159.16
2022-09-09T10:40:57.480Z,100177.66
2022-09-09T10:43:42.081Z,100172.75
2022-09-09T10:46:30.228Z,100172.34
2022-09-09T10:49:04.963Z,100167.44
2022-09-09T10:51:34.916Z,100173.41
2022-09-09T10:54:41.403Z,100177.88
2022-09-09T10:57:35.081Z,100150.09
2022-09-09T11:00:15.561Z,100168.03
2022-09-09T11:02:43.007Z,100130.84
2022-09-09T11:05:34.772Z,100177.16
2022-09-09T11:08:06.337Z,100168.44
2022-09-09T11:11:03.403Z,100172.59
2022-09-09T11:13:52.421Z,100173.91
2022-09-09T11:16:21.799Z,100172.97
2022-09-09T11:18:48.553Z,100157.69
2022-09-09T11:21:27.162Z,100174.25
2022-09-09T11:24:02.167Z,100173.19
2022-09-09T11:26:45.790Z,100156.88
2022-09-09T11:29:38.002Z,100174.03
2022-09-09T11:32:45.795Z,100162.50
2022-09-09T11:35:33.457Z,100176.69
2022-09-09T11:38:06.040Z,100174.13
2022-09-09T11:40:33.793Z,100168.09
2022-09-09T11:43:06.827Z,100168.09
2022-09-09T11:45:36.338Z,100175.19
2022-09-09T11:48:04.671Z,100177.03
2022-09-09T11:50:37.352Z,100188.91
2022-09-09T11:53:23.520Z,100167.22
2022-09-09T11:56:09.987Z,100163.16
2022-09-09T11:58:42.591Z,100186.31
2022-09-09T12:01:30.870Z,100187.72
2022-09-09T12:04:12.554Z,100194.00
2022-09-09T12:06:47.778Z,100195.59
2022-09-09T12:09:49.413Z,100203.97
2022-09-09T12:12:15.864Z,100186.94
2022-09-09T12:14:42.242Z,100192.81
2022-09-09T12:17:17.537Z,100192.81
2022-09-09T12:19:43.869Z,100166.50
2022-09-09T12:22:31.843Z,100172.38
2022-09-09T12:25:10.312Z,100207.38
2022-09-09T12:28:05.299Z,100196.59
2022-09-09T12:30:45.821Z,100201.31
2022-09-09T12:33:17.471Z,100175.38
2022-09-09T12:35:49.930Z,100206.22
2022-09-09T12:38:26.613Z,100176.03
2022-09-09T12:40:58.269Z,100185.09
2022-09-09T12:43:26.463Z,100175.06
2022-09-09T12:46:09.571Z,100148.28
2022-09-09T12:48:39.979Z,100163.09
2022-09-09T12:51:17.829Z,100108.03
2022-09-09T12:53:47.041Z,100130.84
2022-09-09T12:56:22.224Z,100157.44
2022-09-09T12:58:52.524Z,100163.41
2022-09-09T13:01:30.269Z,100125.66
2022-09-09T13:03:57.761Z,100131.09
2022-09-09T13:06:28.889Z,100162.38
2022-09-09T13:08:59.945Z,100152.16
2022-09-09T13:11:40.473Z,100122.59
2022-09-09T13:14:07.428Z,100141.41
2022-09-09T13:16:41.943Z,100125.09
2022-09-09T13:19:14.846Z,100137.03
2022-09-09T13:21:41.556Z,100138.09
2022-09-09T13:24:30.375Z,100147.47
2022-09-09T13:26:59.127Z,100110.25
2022-09-09T13:29:25.634Z,100120.53
2022-09-09T13:31:56.467Z,100125.53
2022-09-09T13:34:31.727Z,100126.81
2022-09-09T13:37:03.532Z,100117.44
2022-09-09T13:39:30.241Z,100113.94
2022-09-09T13:41:56.953Z,100108.75
2022-09-09T13:44:34.919Z,100116.94
2022-09-09T13:47:08.131Z,100161.41
2022-09-09T13:49:36.702Z,100187.34
2022-09-09T13:52:17.738Z,100190.22
2022-09-09T13:54:47.768Z,100181.88
2022-09-09T13:57:22.864Z,100165.50
2022-09-09T14:00:04.679Z,100152.66
2022-09-09T14:02:32.123Z,100174.59
2022-09-09T14:04:58.571Z,100179.16
2022-09-09T14:07:26.177Z,100155.22
2022-09-09T14:09:53.325Z,100169.13
2022-09-09T14:12:19.768Z,100162.22
2022-09-09T14:14:46.180Z,100127.41
2022-09-09T14:17:12.461Z,100139.78
2022-09-09T14:19:38.938Z,100129.88
2022-09-09T14:22:05.361Z,100147.25
2022-09-09T14:24:31.879Z,100142.84
2022-09-09T14:26:58.222Z,100126.03
2022-09-09T14:29:25.958Z,100145.22
2022-09-09T14:31:52.319Z,100150.31
2022-09-09T14:34:19.431Z,100139.22
2022-09-09T14:36:46.626Z,100142.44
2022-09-09T14:39:13.159Z,100112.34
2022-09-09T14:41:39.451Z,100131.06
2022-09-09T14:44:05.826Z,100124.03
2022-09-09T14:46:34.215Z,100134.06
2022-09-09T14:49:00.764Z,100129.09
2022-09-09T14:51:29.017Z,100138.84
2022-09-09T14:53:58.614Z,100110.09
2022-09-09T14:56:28.657Z,100112.59
2022-09-09T14:58:58.875Z,100124.69
2022-09-09T15:01:28.168Z,100120.84
2022-09-09T15:03:58.869Z,100105.56
2022-09-09T15:06:27.344Z,100101.31
2022-09-09T15:08:54.510Z,100081.53
2022-09-09T15:11:22.375Z,100103.88
2022-09-09T15:13:53.577Z,100108.06
2022-09-09T15:16:20.974Z,100077.50
2022-09-09T15:18:50.930Z,100105.53
2022-09-09T15:21:22.572Z,100105.09
2022-09-09T15:23:49.855Z,100042.63
2022-09-09T15:26:16.519Z,100091.28
2022-09-09T15:28:45.270Z,100107.66
2022-09-09T15:31:23.696Z,100109.44
2022-09-09T15:33:54.240Z,100108.97
2022-09-09T15:36:23.672Z,100085.25
2022-09-09T15:38:50.195Z,100101.44
2022-09-09T15:41:18.027Z,100100.22
2022-09-09T15:43:50.800Z,100109.16
2022-09-09T15:46:20.213Z,100108.31
2022-09-09T15:48:49.056Z,100105.53
2022-09-09T15:51:41.254Z,100105.69
2022-09-09T15:54:04.373Z,100122.75
2022-09-09T15:56:31.410Z,100109.16
2022-09-09T15:58:58.373Z,100128.72
2022-09-09T16:01:25.730Z,100131.69
2022-09-09T16:03:52.711Z,100113.44
2022-09-09T16:06:22.333Z,100135.97
2022-09-09T16:08:52.619Z,100142.16
2022-09-09T16:11:30.098Z,100141.63
2022-09-09T16:13:56.964Z,100135.78
2022-09-09T16:16:25.842Z,100081.06
2022-09-09T16:18:55.683Z,100083.44
2022-09-09T16:21:34.165Z,100127.59
2022-09-09T16:24:03.314Z,100132.25
2022-09-09T16:26:32.271Z,100128.81
2022-09-09T16:29:02.229Z,100134.41
2022-09-09T16:31:30.485Z,100129.78
2022-09-09T16:33:56.949Z,100117.81
2022-09-09T16:36:25.539Z,100125.66
2022-09-09T16:38:58.180Z,100136.59
2022-09-09T16:41:26.186Z,100114.91
2022-09-09T16:43:57.663Z,100133.63
2022-09-09T16:46:25.383Z,100141.28
2022-09-09T16:48:52.595Z,100141.28
2022-09-09T16:51:30.640Z,100134.69
2022-09-09T16:53:59.532Z,100130.88
2022-09-09T16:56:28.056Z,100118.09
2022-09-09T16:58:57.332Z,100112.47
2022-09-09T17:01:30.395Z,100125.13
2022-09-09T17:04:01.123Z,100133.19
2022-09-09T17:06:29.780Z,100153.75
2022-09-09T17:08:57.970Z,100147.66
2022-09-09T17:11:24.629Z,100160.72
2022-09-09T17:13:52.741Z,100151.69
2022-09-09T17:16:22.677Z,100150.00
2022-09-09T17:18:50.800Z,100165.94
2022-09-09T17:21:20.017Z,100122.47
2022-09-09T17:23:47.357Z,100144.88
2022-09-09T17:26:17.135Z,100147.59
2022-09-09T17:28:46.444Z,100175.47
2022-09-09T17:31:15.133Z,100163.72
2022-09-09T17:33:45.076Z,100185.25
2022-09-09T17:36:15.062Z,100176.69
2022-09-09T17:38:43.414Z,100191.75
2022-09-09T17:41:37.032Z,100192.81
2022-09-09T17:44:04.725Z,100176.19
2022-09-09T17:46:35.922Z,100182.78
2022-09-09T17:49:05.501Z,100192.19
2022-09-09T17:51:33.253Z,100193.03
2022-09-09T17:54:01.901Z,100200.28
2022-09-09T17:56:31.499Z,100194.53
2022-09-09T17:58:59.177Z,100192.66
2022-09-09T18:01:29.122Z,100192.44
2022-09-09T18:04:01.343Z,100193.09
2022-09-09T18:06:31.792Z,100202.63
2022-09-09T18:09:02.262Z,100220.94
2022-09-09T18:11:31.985Z,100222.59
2022-09-09T18:14:00.897Z,100190.13
2022-09-09T18:16:30.510Z,100194.50
2022-09-09T18:19:03.318Z,100202.38
2022-09-09T18:21:32.998Z,100188.03
2022-09-09T18:24:00.947Z,100226.06
2022-09-09T18:26:28.046Z,100228.91
2022-09-09T18:28:59.323Z,100233.47
2022-09-09T18:31:27.658Z,100194.75
2022-09-09T18:33:56.778Z,100238.38
2022-09-09T18:36:26.500Z,100220.69
2022-09-09T18:38:53.207Z,100236.53
2022-09-09T18:41:22.536Z,100244.41
2022-09-09T18:43:50.337Z,100245.38
2022-09-09T18:46:18.158Z,100239.22
2022-09-09T18:48:45.756Z,100226.53
2022-09-09T18:51:14.159Z,100213.00
2022-09-09T18:53:43.803Z,100237.69
2022-09-09T18:56:13.311Z,100251.81
2022-09-09T18:58:40.365Z,100240.81
2022-09-09T19:01:12.326Z,100245.44
2022-09-09T19:03:38.874Z,100256.06
2022-09-09T19:06:09.492Z,100241.47
2022-09-09T19:08:37.817Z,100260.03
2022-09-09T19:11:06.091Z,100262.44
2022-09-09T19:13:33.170Z,100287.97
2022-09-09T19:16:07.570Z,100286.19
2022-09-09T19:18:34.878Z,100290.03
2022-09-09T19:21:13.506Z,100304.00
2022-09-09T19:23:41.274Z,100292.31
2022-09-09T19:26:08.102Z,100289.47
2022-09-09T19:28:35.809Z,100270.25
2022-09-09T19:31:06.795Z,100284.00
2022-09-09T19:33:34.085Z,100257.13
2022-09-09T19:36:02.330Z,100299.34
2022-09-09T19:38:30.099Z,100301.41
2022-09-09T19:40:56.788Z,100296.31
2022-09-09T19:43:24.655Z,100282.81
2022-09-09T19:46:02.278Z,100300.22
2022-09-09T19:48:33.460Z,100286.22
2022-09-09T19:51:04.714Z,100297.03
2022-09-09T19:53:34.979Z,100300.56
2022-09-09T19:56:03.486Z,100272.38
2022-09-09T19:58:34.325Z,100307.03
2022-09-09T20:01:11.386Z,100314.06
2022-09-09T20:03:39.701Z,100321.06
2022-09-09T20:06:08.677Z,100319.50
2022-09-09T20:08:36.470Z,100297.13
2022-09-09T20:11:04.054Z,100293.56
2022-09-09T20:13:32.870Z,100305.50
2022-09-09T20:16:03.738Z,100326.00
2022-09-09T20:18:32.377Z,100320.50
2022-09-09T20:21:00.771Z,100332.28
2022-09-09T20:23:31.106Z,100326.00
2022-09-09T20:26:02.941Z,100318.09
2022-09-09T20:28:29.824Z,100328.53
2022-09-09T20:30:56.163Z,100308.47
2022-09-09T20:33:22.526Z,100313.69
2022-09-09T20:35:48.960Z,100322.13
2022-09-09T20:38:15.401Z,100323.38
2022-09-09T20:40:42.096Z,100325.97
2022-09-09T20:43:12.544Z,100328.25
2022-09-09T20:45:39.189Z,100333.66
2022-09-09T20:48:07.206Z,100324.06
2022-09-09T20:50:36.800Z,100288.03
2022-09-09T20:53:03.813Z,100329.22
2022-09-09T20:55:34.270Z,100289.84
2022-09-09T20:58:01.136Z,100332.81
2022-09-09T21:00:29.928Z,100334.59
2022-09-09T21:02:56.678Z,100303.41
2022-09-09T21:05:24.303Z,100301.88
2022-09-09T21:07:52.805Z,100324.78
2022-09-09T21:10:20.127Z,100310.94
2022-09-09T21:12:46.589Z,100319.47
2022-09-09T21:15:12.879Z,100301.88
2022-09-09T21:17:40.166Z,100282.22
2022-09-09T21:20:07.213Z,100309.75
2022-09-09T21:22:33.562Z,100303.41
2022-09-09T21:24:59.874Z,100313.34
2022-09-09T21:27:26.200Z,100308.53
2022-09-09T21:29:52.588Z,100301.16
2022-09-09T21:32:18.900Z,100302.75
2022-09-09T21:34:45.791Z,100303.06
2022-09-09T21:37:12.119Z,100296.56
2022-09-09T21:39:38.638Z,100298.47
2022-09-09T21:42:05.130Z,100328.00
2022-09-09T21:44:31.467Z,100313.66
2022-09-09T21:46:57.765Z,100313.66
2022-09-09T21:49:24.061Z,100301.88
2022-09-09T21:51:50.851Z,100317.75
2022-09-09T21:54:18.592Z,100328.34
2022-09-09T21:56:45.110Z,100323.94
2022-09-09T21:59:11.991Z,100311.22
2022-09-09T22:01:40.189Z,100321.28
2022-09-09T22:04:06.566Z,100309.09
2022-09-09T22:06:32.985Z,100294.22
2022-09-09T22:08:59.419Z,100315.06
2022-09-09T22:11:25.798Z,100312.91
2022-09-09T22:13:53.262Z,100287.44
2022-09-09T22:16:22.419Z,100317.53
2022-09-09T22:18:54.644Z,100321.66
2022-09-09T22:21:22.063Z,100315.59
2022-09-09T22:23:57.264Z,100322.41
2022-09-09T22:26:25.301Z,100325.75
2022-09-09T22:28:53.695Z,100324.03
2022-09-09T22:31:22.487Z,100333.00
2022-09-09T22:33:49.154Z,100318.59
2022-09-09T22:36:15.505Z,100324.59
2022-09-09T22:38:42.363Z,100318.53
2022-09-09T22:41:08.744Z,100298.09
2022-09-09T22:43:35.042Z,100326.97
2022-09-09T22:46:02.342Z,100326.47
2022-09-09T22:48:32.952Z,100322.19
2022-09-09T22:51:04.414Z,100321.72
2022-09-09T22:53:34.191Z,100328.88
2022-09-09T22:56:02.920Z,100322.56
2022-09-09T22:58:31.631Z,100321.31
2022-09-09T23:00:59.465Z,100305.81
2022-09-09T23:03:27.972Z,100332.56
2022-09-09T23:06:01.574Z,100319.06
2022-09-09T23:08:36.749Z,100317.91
2022-09-09T23:11:11.376Z,100318.75
2022-09-09T23:13:41.422Z,100334.19
2022-09-09T23:16:12.880Z,100300.09
2022-09-09T23:18:43.468Z,100337.69
2022-09-09T23:21:11.770Z,100322.13
2022-09-09T23:23:40.558Z,100340.06
2022-09-09T23:26:09.390Z,100302.38
2022-09-09T23:28:37.863Z,100338.19
2022-09-09T23:31:09.833Z,100336.00
2022-09-09T23:33:36.988Z,100341.97
2022-09-09T23:36:08.283Z,100342.66
2022-09-09T23:38:36.240Z,100329.34
2022-09-09T23:41:03.458Z,100345.44
2022-09-09T23:43:29.923Z,100306.31
2022-09-09T23:45:56.934Z,100326.25
2022-09-09T23:48:28.002Z,100321.22
2022-09-09T23:50:54.958Z,100318.97
2022-09-09T23:53:22.082Z,100320.03
2022-09-09T23:55:48.506Z,100341.13
2022-09-09T23:58:15.061Z,100344.94
